sensor_id;sensor_type;location;lat;lon;timestamp;P1;durP1;ratioP1;P2;durP2;ratioP2
69511;SDS011;56709;52.036;4.644;2022-09-09T00:01:00;9.25;;;5.07;;
69511;SDS011;56709;52.036;4.644;2022-09-09T00:03:45;10.23;;;4.97;;
69511;SDS011;56709;52.036;4.644;2022-09-09T00:06:33;9.68;;;5.05;;
69511;SDS011;56709;52.036;4.644;2022-09-09T00:09:07;21.30;;;5.90;;
69511;SDS011;56709;52.036;4.644;2022-09-09T00:14:20;10.27;;;6.13;;
69511;SDS011;56709;52.036;4.644;2022-09-09T00:16:58;17.23;;;6.38;;
69511;SDS011;56709;52.036;4.644;2022-09-09T00:19:37;12.52;;;6.80;;
69511;SDS011;56709;52.036;4.644;2022-09-09T00:27:16;10.35;;;7.35;;
69511;SDS011;56709;52.036;4.644;2022-09-09T00:29:55;14.40;;;8.38;;
69511;SDS011;56709;52.036;4.644;2022-09-09T00:32:24;15.45;;;8.07;;
69511;SDS011;56709;52.036;4.644;2022-09-09T00:34:54;15.02;;;8.10;;
69511;SDS011;56709;52.036;4.644;2022-09-09T00:37:22;10.90;;;8.30;;
69511;SDS011;56709;52.036;4.644;2022-09-09T00:39:51;18.05;;;9.85;;
69511;SDS011;56709;52.036;4.644;2022-09-09T00:42:25;18.83;;;9.55;;
69511;SDS011;56709;52.036;4.644;2022-09-09T00:44:59;14.63;;;8.63;;
69511;SDS011;56709;52.036;4.644;2022-09-09T00:58:32;15.20;;;10.20;;
69511;SDS011;56709;52.036;4.644;2022-09-09T01:01:04;17.33;;;11.18;;
69511;SDS011;56709;52.036;4.644;2022-09-09T01:03:34;17.23;;;10.52;;
69511;SDS011;56709;52.036;4.644;2022-09-09T01:06:02;16.02;;;9.90;;
69511;SDS011;56709;52.036;4.644;2022-09-09T01:08:39;14.10;;;10.20;;
69511;SDS011;56709;52.036;4.644;2022-09-09T01:11:09;19.17;;;11.73;;
69511;SDS011;56709;52.036;4.644;2022-09-09T01:13:38;18.90;;;11.75;;
69511;SDS011;56709;52.036;4.644;2022-09-09T01:16:04;19.27;;;11.40;;
69511;SDS011;56709;52.036;4.644;2022-09-09T01:18:34;18.83;;;12.18;;
69511;SDS011;56709;52.036;4.644;2022-09-09T01:26:46;19.10;;;10.75;;
69511;SDS011;56709;52.036;4.644;2022-09-09T01:29:12;18.50;;;10.98;;
69511;SDS011;56709;52.036;4.644;2022-09-09T01:31:52;21.40;;;10.82;;
69511;SDS011;56709;52.036;4.644;2022-09-09T01:34:20;18.70;;;11.15;;
69511;SDS011;56709;52.036;4.644;2022-09-09T01:39:25;14.88;;;9.85;;
69511;SDS011;56709;52.036;4.644;2022-09-09T01:41:51;16.33;;;9.85;;
69511;SDS011;56709;52.036;4.644;2022-09-09T01:44:17;17.00;;;9.75;;
69511;SDS011;56709;52.036;4.644;2022-09-09T01:46:44;15.80;;;9.25;;
69511;SDS011;56709;52.036;4.644;2022-09-09T01:49:09;16.80;;;8.57;;
69511;SDS011;56709;52.036;4.644;2022-09-09T01:51:35;13.98;;;8.23;;
69511;SDS011;56709;52.036;4.644;2022-09-09T01:54:01;13.48;;;8.00;;
69511;SDS011;56709;52.036;4.644;2022-09-09T01:59:15;19.00;;;8.95;;
69511;SDS011;56709;52.036;4.644;2022-09-09T02:04:44;13.77;;;7.68;;
69511;SDS011;56709;52.036;4.644;2022-09-09T02:08:00;14.95;;;8.07;;
69511;SDS011;56709;52.036;4.644;2022-09-09T02:10:17;13.93;;;7.20;;
69511;SDS011;56709;52.036;4.644;2022-09-09T02:12:47;11.60;;;6.60;;
69511;SDS011;56709;52.036;4.644;2022-09-09T02:15:17;16.77;;;7.97;;
69511;SDS011;56709;52.036;4.644;2022-09-09T02:18:04;11.80;;;6.75;;
69511;SDS011;56709;52.036;4.644;2022-09-09T02:20:33;12.32;;;7.18;;
69511;SDS011;56709;52.036;4.644;2022-09-09T02:23:01;11.85;;;7.25;;
69511;SDS011;56709;52.036;4.644;2022-09-09T02:25:28;14.93;;;8.07;;
69511;SDS011;56709;52.036;4.644;2022-09-09T02:27:57;16.38;;;8.48;;
69511;SDS011;56709;52.036;4.644;2022-09-09T02:30:23;20.08;;;9.52;;
69511;SDS011;56709;52.036;4.644;2022-09-09T02:32:50;18.35;;;8.93;;
69511;SDS011;56709;52.036;4.644;2022-09-09T02:35:21;16.15;;;9.18;;
69511;SDS011;56709;52.036;4.644;2022-09-09T02:37:49;14.18;;;8.77;;
69511;SDS011;56709;52.036;4.644;2022-09-09T02:42:42;13.23;;;8.20;;
69511;SDS011;56709;52.036;4.644;2022-09-09T02:45:09;14.68;;;8.20;;
69511;SDS011;56709;52.036;4.644;2022-09-09T02:53:15;18.85;;;9.63;;
69511;SDS011;56709;52.036;4.644;2022-09-09T02:55:46;19.83;;;9.88;;
69511;SDS011;56709;52.036;4.644;2022-09-09T02:58:13;17.98;;;9.73;;
69511;SDS011;56709;52.036;4.644;2022-09-09T03:00:48;21.92;;;10.13;;
69511;SDS011;56709;52.036;4.644;2022-09-09T03:03:14;21.23;;;10.50;;
69511;SDS011;56709;52.036;4.644;2022-09-09T03:05:41;18.90;;;9.75;;
69511;SDS011;56709;52.036;4.644;2022-09-09T03:08:06;19.90;;;10.80;;
69511;SDS011;56709;52.036;4.644;2022-09-09T03:10:32;21.35;;;10.00;;
69511;SDS011;56709;52.036;4.644;2022-09-09T03:12:58;20.65;;;11.38;;
69511;SDS011;56709;52.036;4.644;2022-09-09T03:15:23;21.30;;;10.48;;
69511;SDS011;56709;52.036;4.644;2022-09-09T03:17:48;17.02;;;10.45;;
69511;SDS011;56709;52.036;4.644;2022-09-09T03:20:14;22.45;;;10.90;;
69511;SDS011;56709;52.036;4.644;2022-09-09T03:22:39;16.83;;;10.60;;
69511;SDS011;56709;52.036;4.644;2022-09-09T03:25:05;17.73;;;11.02;;
69511;SDS011;56709;52.036;4.644;2022-09-09T03:27:31;18.60;;;11.75;;
69511;SDS011;56709;52.036;4.644;2022-09-09T03:29:56;23.10;;;12.20;;
69511;SDS011;56709;52.036;4.644;2022-09-09T03:32:22;18.05;;;11.02;;
69511;SDS011;56709;52.036;4.644;2022-09-09T03:34:50;22.05;;;11.68;;
69511;SDS011;56709;52.036;4.644;2022-09-09T03:37:17;24.13;;;11.70;;
69511;SDS011;56709;52.036;4.644;2022-09-09T03:39:43;23.67;;;12.55;;
69511;SDS011;56709;52.036;4.644;2022-09-09T03:42:09;21.35;;;12.00;;
69511;SDS011;56709;52.036;4.644;2022-09-09T03:44:35;22.52;;;11.82;;
69511;SDS011;56709;52.036;4.644;2022-09-09T03:47:00;19.75;;;12.10;;
69511;SDS011;56709;52.036;4.644;2022-09-09T03:49:26;17.27;;;11.20;;
69511;SDS011;56709;52.036;4.644;2022-09-09T03:51:54;20.67;;;11.30;;
69511;SDS011;56709;52.036;4.644;2022-09-09T03:54:23;18.92;;;11.23;;
69511;SDS011;56709;52.036;4.644;2022-09-09T03:56:52;19.85;;;10.90;;
69511;SDS011;56709;52.036;4.644;2022-09-09T03:59:17;18.83;;;11.07;;
69511;SDS011;56709;52.036;4.644;2022-09-09T04:01:43;18.17;;;9.93;;
69511;SDS011;56709;52.036;4.644;2022-09-09T04:04:10;17.83;;;9.50;;
69511;SDS011;56709;52.036;4.644;2022-09-09T04:06:37;21.25;;;9.90;;
69511;SDS011;56709;52.036;4.644;2022-09-09T04:09:02;14.02;;;8.02;;
69511;SDS011;56709;52.036;4.644;2022-09-09T04:11:27;17.70;;;9.23;;
69511;SDS011;56709;52.036;4.644;2022-09-09T04:13:53;15.88;;;8.63;;
69511;SDS011;56709;52.036;4.644;2022-09-09T04:16:19;14.35;;;7.80;;
69511;SDS011;56709;52.036;4.644;2022-09-09T04:18:45;16.95;;;8.07;;
69511;SDS011;56709;52.036;4.644;2022-09-09T04:21:10;16.63;;;7.60;;
69511;SDS011;56709;52.036;4.644;2022-09-09T04:23:37;11.88;;;7.43;;
69511;SDS011;56709;52.036;4.644;2022-09-09T04:26:03;12.73;;;6.85;;
69511;SDS011;56709;52.036;4.644;2022-09-09T04:28:30;12.52;;;6.63;;
69511;SDS011;56709;52.036;4.644;2022-09-09T04:30:56;14.50;;;6.70;;
69511;SDS011;56709;52.036;4.644;2022-09-09T04:33:29;12.07;;;6.07;;
69511;SDS011;56709;52.036;4.644;2022-09-09T04:35:55;13.02;;;6.32;;
69511;SDS011;56709;52.036;4.644;2022-09-09T04:38:20;9.20;;;5.85;;
69511;SDS011;56709;52.036;4.644;2022-09-09T04:40:48;10.75;;;5.72;;
69511;SDS011;56709;52.036;4.644;2022-09-09T04:43:14;12.93;;;5.30;;
69511;SDS011;56709;52.036;4.644;2022-09-09T04:45:41;8.07;;;4.85;;
69511;SDS011;56709;52.036;4.644;2022-09-09T04:48:07;10.48;;;4.85;;
69511;SDS011;56709;52.036;4.644;2022-09-09T04:50:32;11.38;;;4.60;;
69511;SDS011;56709;52.036;4.644;2022-09-09T04:53:02;12.88;;;4.35;;
69511;SDS011;56709;52.036;4.644;2022-09-09T04:55:28;13.05;;;4.85;;
69511;SDS011;56709;52.036;4.644;2022-09-09T04:57:54;11.40;;;4.68;;
69511;SDS011;56709;52.036;4.644;2022-09-09T05:00:19;12.27;;;4.85;;
69511;SDS011;56709;52.036;4.644;2022-09-09T05:02:45;8.57;;;4.72;;
69511;SDS011;56709;52.036;4.644;2022-09-09T05:05:11;10.20;;;4.47;;
69511;SDS011;56709;52.036;4.644;2022-09-09T05:07:37;10.15;;;4.57;;
69511;SDS011;56709;52.036;4.644;2022-09-09T05:10:02;14.27;;;4.85;;
69511;SDS011;56709;52.036;4.644;2022-09-09T05:12:30;9.98;;;4.28;;
69511;SDS011;56709;52.036;4.644;2022-09-09T05:14:56;12.07;;;4.75;;
69511;SDS011;56709;52.036;4.644;2022-09-09T05:17:21;9.25;;;4.07;;
69511;SDS011;56709;52.036;4.644;2022-09-09T05:19:47;13.48;;;4.85;;
69511;SDS011;56709;52.036;4.644;2022-09-09T05:22:13;11.85;;;4.45;;
69511;SDS011;56709;52.036;4.644;2022-09-09T05:24:38;11.75;;;4.55;;
69511;SDS011;56709;52.036;4.644;2022-09-09T05:27:04;10.10;;;4.85;;
69511;SDS011;56709;52.036;4.644;2022-09-09T05:29:31;8.07;;;4.10;;
69511;SDS011;56709;52.036;4.644;2022-09-09T05:31:59;12.07;;;4.45;;
69511;SDS011;56709;52.036;4.644;2022-09-09T05:34:24;11.70;;;4.35;;
69511;SDS011;56709;52.036;4.644;2022-09-09T05:36:50;10.07;;;4.13;;
69511;SDS011;56709;52.036;4.644;2022-09-09T05:39:17;8.88;;;3.72;;
69511;SDS011;56709;52.036;4.644;2022-09-09T05:41:42;8.65;;;4.00;;
69511;SDS011;56709;52.036;4.644;2022-09-09T05:44:07;10.20;;;3.95;;
69511;SDS011;56709;52.036;4.644;2022-09-09T05:46:33;11.95;;;4.20;;
69511;SDS011;56709;52.036;4.644;2022-09-09T05:48:58;13.68;;;4.05;;
69511;SDS011;56709;52.036;4.644;2022-09-09T05:51:25;13.73;;;4.03;;
69511;SDS011;56709;52.036;4.644;2022-09-09T05:53:51;14.55;;;4.10;;
69511;SDS011;56709;52.036;4.644;2022-09-09T05:56:18;9.15;;;3.53;;
69511;SDS011;56709;52.036;4.644;2022-09-09T05:58:46;11.82;;;4.45;;
69511;SDS011;56709;52.036;4.644;2022-09-09T06:01:13;9.82;;;3.67;;
69511;SDS011;56709;52.036;4.644;2022-09-09T06:03:40;9.50;;;3.65;;
69511;SDS011;56709;52.036;4.644;2022-09-09T06:06:30;12.90;;;3.63;;
69511;SDS011;56709;52.036;4.644;2022-09-09T06:09:03;9.90;;;3.35;;
69511;SDS011;56709;52.036;4.644;2022-09-09T06:11:32;11.98;;;3.97;;
69511;SDS011;56709;52.036;4.644;2022-09-09T06:13:59;10.02;;;3.03;;
69511;SDS011;56709;52.036;4.644;2022-09-09T06:16:27;10.32;;;3.53;;
69511;SDS011;56709;52.036;4.644;2022-09-09T06:18:53;12.07;;;3.75;;
69511;SDS011;56709;52.036;4.644;2022-09-09T06:21:29;12.30;;;3.80;;
69511;SDS011;56709;52.036;4.644;2022-09-09T06:23:57;9.55;;;2.92;;
69511;SDS011;56709;52.036;4.644;2022-09-09T06:26:24;7.38;;;3.13;;
69511;SDS011;56709;52.036;4.644;2022-09-09T06:28:53;12.18;;;2.83;;
69511;SDS011;56709;52.036;4.644;2022-09-09T06:31:20;8.95;;;2.78;;
69511;SDS011;56709;52.036;4.644;2022-09-09T06:33:48;6.50;;;2.60;;
69511;SDS011;56709;52.036;4.644;2022-09-09T06:36:15;7.60;;;2.97;;
69511;SDS011;56709;52.036;4.644;2022-09-09T06:38:43;8.02;;;2.83;;
69511;SDS011;56709;52.036;4.644;2022-09-09T06:41:09;7.88;;;3.15;;
69511;SDS011;56709;52.036;4.644;2022-09-09T06:43:35;10.27;;;3.33;;
69511;SDS011;56709;52.036;4.644;2022-09-09T06:46:02;9.32;;;3.10;;
69511;SDS011;56709;52.036;4.644;2022-09-09T06:48:28;12.40;;;3.13;;
69511;SDS011;56709;52.036;4.644;2022-09-09T06:51:07;10.40;;;3.08;;
69511;SDS011;56709;52.036;4.644;2022-09-09T06:53:36;9.60;;;3.35;;
69511;SDS011;56709;52.036;4.644;2022-09-09T06:56:13;10.20;;;3.50;;
69511;SDS011;56709;52.036;4.644;2022-09-09T06:58:43;7.68;;;3.30;;
69511;SDS011;56709;52.036;4.644;2022-09-09T07:01:11;21.77;;;4.88;;
69511;SDS011;56709;52.036;4.644;2022-09-09T07:03:41;9.88;;;3.72;;
69511;SDS011;56709;52.036;4.644;2022-09-09T07:06:08;12.77;;;4.30;;
69511;SDS011;56709;52.036;4.644;2022-09-09T07:08:55;16.63;;;5.05;;
69511;SDS011;56709;52.036;4.644;2022-09-09T07:11:23;10.80;;;4.35;;
69511;SDS011;56709;52.036;4.644;2022-09-09T07:13:52;13.48;;;4.30;;
69511;SDS011;56709;52.036;4.644;2022-09-09T07:16:18;9.82;;;4.93;;
69511;SDS011;56709;52.036;4.644;2022-09-09T07:18:45;10.48;;;4.60;;
69511;SDS011;56709;52.036;4.644;2022-09-09T07:21:11;11.85;;;5.22;;
69511;SDS011;56709;52.036;4.644;2022-09-09T07:23:38;9.18;;;5.10;;
69511;SDS011;56709;52.036;4.644;2022-09-09T07:26:13;10.48;;;4.80;;
69511;SDS011;56709;52.036;4.644;2022-09-09T07:28:42;13.93;;;4.72;;
69511;SDS011;56709;52.036;4.644;2022-09-09T07:31:15;11.38;;;4.80;;
69511;SDS011;56709;52.036;4.644;2022-09-09T07:33:45;12.65;;;4.60;;
69511;SDS011;56709;52.036;4.644;2022-09-09T07:36:15;14.93;;;5.30;;
69511;SDS011;56709;52.036;4.644;2022-09-09T07:41:20;10.60;;;6.00;;
69511;SDS011;56709;52.036;4.644;2022-09-09T07:43:49;11.23;;;4.95;;
69511;SDS011;56709;52.036;4.644;2022-09-09T07:46:17;12.13;;;5.57;;
69511;SDS011;56709;52.036;4.644;2022-09-09T07:48:48;10.48;;;5.20;;
69511;SDS011;56709;52.036;4.644;2022-09-09T07:51:18;13.57;;;5.63;;
69511;SDS011;56709;52.036;4.644;2022-09-09T07:53:46;11.15;;;5.43;;
69511;SDS011;56709;52.036;4.644;2022-09-09T07:56:16;11.98;;;5.22;;
69511;SDS011;56709;52.036;4.644;2022-09-09T07:58:44;10.70;;;5.80;;
69511;SDS011;56709;52.036;4.644;2022-09-09T08:01:14;14.15;;;5.85;;
69511;SDS011;56709;52.036;4.644;2022-09-09T08:03:43;11.82;;;5.90;;
69511;SDS011;56709;52.036;4.644;2022-09-09T08:06:09;8.57;;;5.13;;
69511;SDS011;56709;52.036;4.644;2022-09-09T08:08:36;11.15;;;5.22;;
69511;SDS011;56709;52.036;4.644;2022-09-09T08:11:09;16.50;;;5.93;;
69511;SDS011;56709;52.036;4.644;2022-09-09T08:13:36;11.60;;;6.00;;
69511;SDS011;56709;52.036;4.644;2022-09-09T08:16:06;11.93;;;5.70;;
69511;SDS011;56709;52.036;4.644;2022-09-09T08:18:31;10.20;;;5.35;;
69511;SDS011;56709;52.036;4.644;2022-09-09T08:20:57;9.88;;;5.57;;
69511;SDS011;56709;52.036;4.644;2022-09-09T08:23:22;14.27;;;5.70;;
69511;SDS011;56709;52.036;4.644;2022-09-09T08:25:47;12.82;;;5.63;;
69511;SDS011;56709;52.036;4.644;2022-09-09T08:28:14;15.68;;;5.55;;
69511;SDS011;56709;52.036;4.644;2022-09-09T08:30:39;11.82;;;5.82;;
69511;SDS011;56709;52.036;4.644;2022-09-09T08:33:05;16.55;;;5.80;;
69511;SDS011;56709;52.036;4.644;2022-09-09T08:35:30;13.07;;;5.20;;
69511;SDS011;56709;52.036;4.644;2022-09-09T08:40:24;11.13;;;5.33;;
69511;SDS011;56709;52.036;4.644;2022-09-09T08:42:53;16.63;;;5.28;;
69511;SDS011;56709;52.036;4.644;2022-09-09T08:53:11;13.75;;;5.00;;
69511;SDS011;56709;52.036;4.644;2022-09-09T08:58:24;9.90;;;4.47;;
69511;SDS011;56709;52.036;4.644;2022-09-09T09:11:48;13.07;;;5.20;;
69511;SDS011;56709;52.036;4.644;2022-09-09T09:17:03;11.77;;;5.22;;
69511;SDS011;56709;52.036;4.644;2022-09-09T09:19:32;12.90;;;5.40;;
69511;SDS011;56709;52.036;4.644;2022-09-09T09:24:42;14.93;;;5.55;;
69511;SDS011;56709;52.036;4.644;2022-09-09T09:29:41;13.27;;;5.70;;
69511;SDS011;56709;52.036;4.644;2022-09-09T09:32:09;17.35;;;6.03;;
69511;SDS011;56709;52.036;4.644;2022-09-09T09:34:37;12.48;;;5.90;;
69511;SDS011;56709;52.036;4.644;2022-09-09T09:37:07;9.52;;;5.28;;
69511;SDS011;56709;52.036;4.644;2022-09-09T09:39:39;10.77;;;5.00;;
69511;SDS011;56709;52.036;4.644;2022-09-09T09:42:12;15.10;;;5.78;;
69511;SDS011;56709;52.036;4.644;2022-09-09T09:44:39;16.10;;;6.13;;
69511;SDS011;56709;52.036;4.644;2022-09-09T09:47:19;14.17;;;5.17;;
69511;SDS011;56709;52.036;4.644;2022-09-09T09:49:56;11.80;;;5.28;;
69511;SDS011;56709;52.036;4.644;2022-09-09T09:52:27;12.85;;;5.32;;
69511;SDS011;56709;52.036;4.644;2022-09-09T09:54:57;14.32;;;4.78;;
69511;SDS011;56709;52.036;4.644;2022-09-09T09:57:26;10.45;;;4.57;;
69511;SDS011;56709;52.036;4.644;2022-09-09T10:00:00;9.85;;;4.40;;
69511;SDS011;56709;52.036;4.644;2022-09-09T10:02:38;12.45;;;4.80;;
69511;SDS011;56709;52.036;4.644;2022-09-09T10:05:12;11.93;;;3.78;;
69511;SDS011;56709;52.036;4.644;2022-09-09T10:07:40;11.38;;;4.15;;
69511;SDS011;56709;52.036;4.644;2022-09-09T10:10:08;9.93;;;3.63;;
69511;SDS011;56709;52.036;4.644;2022-09-09T10:12:55;10.38;;;3.60;;
69511;SDS011;56709;52.036;4.644;2022-09-09T10:18:20;11.50;;;3.75;;
69511;SDS011;56709;52.036;4.644;2022-09-09T10:24:30;8.55;;;3.40;;
69511;SDS011;56709;52.036;4.644;2022-09-09T10:29:58;10.88;;;3.90;;
69511;SDS011;56709;52.036;4.644;2022-09-09T10:52:02;8.88;;;3.65;;
69511;SDS011;56709;52.036;4.644;2022-09-09T10:57:36;9.10;;;3.45;;
69511;SDS011;56709;52.036;4.644;2022-09-09T11:00:30;7.40;;;3.40;;
69511;SDS011;56709;52.036;4.644;2022-09-09T11:03:18;9.75;;;3.88;;
69511;SDS011;56709;52.036;4.644;2022-09-09T11:05:51;7.07;;;3.55;;
69511;SDS011;56709;52.036;4.644;2022-09-09T11:08:38;7.32;;;4.30;;
69511;SDS011;56709;52.036;4.644;2022-09-09T11:11:04;10.95;;;5.18;;
69511;SDS011;56709;52.036;4.644;2022-09-09T11:16:21;12.27;;;4.85;;
69511;SDS011;56709;52.036;4.644;2022-09-09T11:18:50;5.38;;;3.88;;
69511;SDS011;56709;52.036;4.644;2022-09-09T11:21:23;10.40;;;4.85;;
69511;SDS011;56709;52.036;4.644;2022-09-09T11:23:59;9.75;;;4.57;;
69511;SDS011;56709;52.036;4.644;2022-09-09T11:26:42;6.28;;;3.70;;
69511;SDS011;56709;52.036;4.644;2022-09-09T11:29:17;10.20;;;5.03;;
69511;SDS011;56709;52.036;4.644;2022-09-09T11:32:01;7.15;;;4.25;;
69511;SDS011;56709;52.036;4.644;2022-09-09T11:34:42;9.65;;;4.13;;
69511;SDS011;56709;52.036;4.644;2022-09-09T11:39:48;10.15;;;3.72;;
69511;SDS011;56709;52.036;4.644;2022-09-09T11:42:25;5.82;;;3.55;;
69511;SDS011;56709;52.036;4.644;2022-09-09T11:44:50;9.35;;;4.10;;
69511;SDS011;56709;52.036;4.644;2022-09-09T11:47:37;9.23;;;3.78;;
69511;SDS011;56709;52.036;4.644;2022-09-09T11:50:27;8.35;;;4.35;;
69511;SDS011;56709;52.036;4.644;2022-09-09T11:55:39;9.85;;;4.07;;
69511;SDS011;56709;52.036;4.644;2022-09-09T12:00:46;7.40;;;4.43;;
69511;SDS011;56709;52.036;4.644;2022-09-09T12:06:17;7.72;;;5.47;;
69511;SDS011;56709;52.036;4.644;2022-09-09T12:09:05;10.38;;;5.40;;
69511;SDS011;56709;52.036;4.644;2022-09-09T12:11:51;9.05;;;5.80;;
69511;SDS011;56709;52.036;4.644;2022-09-09T12:14:34;13.35;;;7.90;;
69511;SDS011;56709;52.036;4.644;2022-09-09T12:19:48;14.63;;;7.85;;
69511;SDS011;56709;52.036;4.644;2022-09-09T12:27:21;21.80;;;8.20;;
69511;SDS011;56709;52.036;4.644;2022-09-09T12:30:09;16.25;;;7.88;;
69511;SDS011;56709;52.036;4.644;2022-09-09T12:32:36;16.52;;;7.68;;
69511;SDS011;56709;52.036;4.644;2022-09-09T12:35:04;14.02;;;7.22;;
69511;SDS011;56709;52.036;4.644;2022-09-09T12:37:44;14.05;;;6.78;;
69511;SDS011;56709;52.036;4.644;2022-09-09T12:40:19;12.43;;;7.35;;
69511;SDS011;56709;52.036;4.644;2022-09-09T12:42:48;11.38;;;6.47;;
69511;SDS011;56709;52.036;4.644;2022-09-09T12:45:16;13.32;;;6.57;;
69511;SDS011;56709;52.036;4.644;2022-09-09T12:47:48;15.85;;;6.75;;
69511;SDS011;56709;52.036;4.644;2022-09-09T12:50:17;12.73;;;6.65;;
69511;SDS011;56709;52.036;4.644;2022-09-09T12:52:44;11.15;;;6.68;;
69511;SDS011;56709;52.036;4.644;2022-09-09T12:55:14;10.40;;;5.97;;
69511;SDS011;56709;52.036;4.644;2022-09-09T12:57:42;8.95;;;5.25;;
69511;SDS011;56709;52.036;4.644;2022-09-09T13:00:13;9.00;;;5.10;;
69511;SDS011;56709;52.036;4.644;2022-09-09T13:02:47;8.55;;;4.95;;
69511;SDS011;56709;52.036;4.644;2022-09-09T13:05:18;14.07;;;6.32;;
69511;SDS011;56709;52.036;4.644;2022-09-09T13:07:45;9.85;;;4.68;;
69511;SDS011;56709;52.036;4.644;2022-09-09T13:10:12;11.85;;;4.68;;
69511;SDS011;56709;52.036;4.644;2022-09-09T13:12:38;7.93;;;4.20;;
69511;SDS011;56709;52.036;4.644;2022-09-09T13:15:04;8.68;;;4.28;;
69511;SDS011;56709;52.036;4.644;2022-09-09T13:17:38;10.77;;;4.65;;
69511;SDS011;56709;52.036;4.644;2022-09-09T13:20:04;5.82;;;4.00;;
69511;SDS011;56709;52.036;4.644;2022-09-09T13:22:33;9.15;;;3.92;;
69511;SDS011;56709;52.036;4.644;2022-09-09T13:25:18;5.93;;;2.95;;
69511;SDS011;56709;52.036;4.644;2022-09-09T13:28:00;5.72;;;3.38;;
69511;SDS011;56709;52.036;4.644;2022-09-09T13:30:34;6.05;;;2.85;;
69511;SDS011;56709;52.036;4.644;2022-09-09T13:35:31;4.47;;;2.53;;
69511;SDS011;56709;52.036;4.644;2022-09-09T13:37:58;3.40;;;2.10;;
69511;SDS011;56709;52.036;4.644;2022-09-09T13:40:24;5.38;;;2.20;;
69511;SDS011;56709;52.036;4.644;2022-09-09T13:42:55;3.00;;;1.98;;
69511;SDS011;56709;52.036;4.644;2022-09-09T13:45:22;2.83;;;2.05;;
69511;SDS011;56709;52.036;4.644;2022-09-09T13:47:49;7.07;;;2.25;;
69511;SDS011;56709;52.036;4.644;2022-09-09T13:52:53;5.28;;;2.25;;
69511;SDS011;56709;52.036;4.644;2022-09-09T13:55:21;4.20;;;1.77;;
69511;SDS011;56709;52.036;4.644;2022-09-09T13:57:58;6.35;;;2.67;;
69511;SDS011;56709;52.036;4.644;2022-09-09T14:00:33;9.50;;;2.97;;
69511;SDS011;56709;52.036;4.644;2022-09-09T14:02:59;5.38;;;2.22;;
69511;SDS011;56709;52.036;4.644;2022-09-09T14:05:27;5.57;;;2.95;;
69511;SDS011;56709;52.036;4.644;2022-09-09T14:07:52;7.35;;;3.50;;
69511;SDS011;56709;52.036;4.644;2022-09-09T14:10:18;6.45;;;3.13;;
69511;SDS011;56709;52.036;4.644;2022-09-09T14:12:43;7.97;;;3.00;;
69511;SDS011;56709;52.036;4.644;2022-09-09T14:15:09;6.65;;;2.85;;
69511;SDS011;56709;52.036;4.644;2022-09-09T14:17:35;3.90;;;2.30;;
69511;SDS011;56709;52.036;4.644;2022-09-09T14:20:02;5.80;;;2.72;;
69511;SDS011;56709;52.036;4.644;2022-09-09T14:22:34;7.10;;;2.50;;
69511;SDS011;56709;52.036;4.644;2022-09-09T14:25:00;7.00;;;2.80;;
69511;SDS011;56709;52.036;4.644;2022-09-09T14:27:26;7.50;;;2.85;;
69511;SDS011;56709;52.036;4.644;2022-09-09T14:29:52;5.07;;;2.47;;
69511;SDS011;56709;52.036;4.644;2022-09-09T14:32:17;5.18;;;2.63;;
69511;SDS011;56709;52.036;4.644;2022-09-09T14:34:43;3.63;;;2.53;;
69511;SDS011;56709;52.036;4.644;2022-09-09T14:37:08;5.28;;;2.85;;
69511;SDS011;56709;52.036;4.644;2022-09-09T14:39:34;6.03;;;3.35;;
69511;SDS011;56709;52.036;4.644;2022-09-09T14:41:59;4.78;;;3.15;;
69511;SDS011;56709;52.036;4.644;2022-09-09T14:44:24;5.82;;;3.03;;
69511;SDS011;56709;52.036;4.644;2022-09-09T14:46:50;6.97;;;3.10;;
69511;SDS011;56709;52.036;4.644;2022-09-09T14:49:15;7.75;;;3.17;;
69511;SDS011;56709;52.036;4.644;2022-09-09T14:51:40;5.18;;;3.20;;
69511;SDS011;56709;52.036;4.644;2022-09-09T14:54:06;7.65;;;3.20;;
69511;SDS011;56709;52.036;4.644;2022-09-09T14:56:32;3.92;;;2.83;;
69511;SDS011;56709;52.036;4.644;2022-09-09T14:58:59;6.30;;;2.80;;
69511;SDS011;56709;52.036;4.644;2022-09-09T15:01:28;8.82;;;2.85;;
69511;SDS011;56709;52.036;4.644;2022-09-09T15:06:22;5.80;;;2.50;;
69511;SDS011;56709;52.036;4.644;2022-09-09T15:08:50;6.47;;;1.77;;
69511;SDS011;56709;52.036;4.644;2022-09-09T15:11:17;6.10;;;2.13;;
69511;SDS011;56709;52.036;4.644;2022-09-09T15:13:43;4.15;;;1.60;;
69511;SDS011;56709;52.036;4.644;2022-09-09T15:16:10;7.93;;;1.90;;
69511;SDS011;56709;52.036;4.644;2022-09-09T15:18:39;3.08;;;1.48;;
69511;SDS011;56709;52.036;4.644;2022-09-09T15:21:08;4.63;;;1.60;;
69511;SDS011;56709;52.036;4.644;2022-09-09T15:23:34;4.97;;;1.67;;
69511;SDS011;56709;52.036;4.644;2022-09-09T15:26:00;5.10;;;1.20;;
69511;SDS011;56709;52.036;4.644;2022-09-09T15:28:26;3.70;;;1.50;;
69511;SDS011;56709;52.036;4.644;2022-09-09T15:30:52;6.88;;;1.63;;
69511;SDS011;56709;52.036;4.644;2022-09-09T15:33:21;6.88;;;1.65;;
69511;SDS011;56709;52.036;4.644;2022-09-09T15:35:47;5.82;;;1.75;;
69511;SDS011;56709;52.036;4.644;2022-09-09T15:38:12;7.88;;;1.42;;
69511;SDS011;56709;52.036;4.644;2022-09-09T15:40:41;6.53;;;1.48;;
69511;SDS011;56709;52.036;4.644;2022-09-09T15:43:07;5.30;;;1.58;;
69511;SDS011;56709;52.036;4.644;2022-09-09T15:45:35;9.43;;;2.10;;
69511;SDS011;56709;52.036;4.644;2022-09-09T15:48:02;6.55;;;1.80;;
69511;SDS011;56709;52.036;4.644;2022-09-09T15:50:29;6.40;;;1.77;;
69511;SDS011;56709;52.036;4.644;2022-09-09T15:52:56;8.85;;;1.95;;
69511;SDS011;56709;52.036;4.644;2022-09-09T15:55:21;7.00;;;1.88;;
69511;SDS011;56709;52.036;4.644;2022-09-09T15:57:49;5.03;;;1.88;;
69511;SDS011;56709;52.036;4.644;2022-09-09T16:00:14;4.78;;;2.15;;
69511;SDS011;56709;52.036;4.644;2022-09-09T16:02:40;7.43;;;2.47;;
69511;SDS011;56709;52.036;4.644;2022-09-09T16:05:05;10.05;;;3.00;;
69511;SDS011;56709;52.036;4.644;2022-09-09T16:07:31;7.78;;;2.90;;
69511;SDS011;56709;52.036;4.644;2022-09-09T16:09:56;8.35;;;3.20;;
69511;SDS011;56709;52.036;4.644;2022-09-09T16:12:22;12.00;;;3.60;;
69511;SDS011;56709;52.036;4.644;2022-09-09T16:14:47;9.07;;;4.00;;
69511;SDS011;56709;52.036;4.644;2022-09-09T16:17:13;6.47;;;3.38;;
69511;SDS011;56709;52.036;4.644;2022-09-09T16:19:39;7.00;;;3.47;;
69511;SDS011;56709;52.036;4.644;2022-09-09T16:22:04;6.47;;;3.38;;
69511;SDS011;56709;52.036;4.644;2022-09-09T16:24:31;8.48;;;3.88;;
69511;SDS011;56709;52.036;4.644;2022-09-09T16:26:57;12.07;;;3.72;;
69511;SDS011;56709;52.036;4.644;2022-09-09T16:29:23;10.38;;;5.55;;
69511;SDS011;56709;52.036;4.644;2022-09-09T16:31:49;16.40;;;6.07;;
69511;SDS011;56709;52.036;4.644;2022-09-09T16:34:15;11.98;;;6.70;;
69511;SDS011;56709;52.036;4.644;2022-09-09T16:39:09;15.27;;;6.83;;
69511;SDS011;56709;52.036;4.644;2022-09-09T16:41:36;12.40;;;6.38;;
69511;SDS011;56709;52.036;4.644;2022-09-09T16:44:03;12.93;;;6.97;;
69511;SDS011;56709;52.036;4.644;2022-09-09T16:46:32;11.65;;;6.00;;
69511;SDS011;56709;52.036;4.644;2022-09-09T16:49:02;11.80;;;6.95;;
69511;SDS011;56709;52.036;4.644;2022-09-09T16:51:29;14.65;;;7.13;;
69511;SDS011;56709;52.036;4.644;2022-09-09T16:54:00;14.30;;;7.75;;
69511;SDS011;56709;52.036;4.644;2022-09-09T16:56:27;14.85;;;6.88;;
69511;SDS011;56709;52.036;4.644;2022-09-09T16:58:58;11.85;;;5.72;;
69511;SDS011;56709;52.036;4.644;2022-09-09T17:01:26;11.15;;;5.60;;
69511;SDS011;56709;52.036;4.644;2022-09-09T17:03:54;8.52;;;4.90;;
69511;SDS011;56709;52.036;4.644;2022-09-09T17:06:20;12.27;;;4.40;;
69511;SDS011;56709;52.036;4.644;2022-09-09T17:08:46;9.50;;;4.65;;